^^
Datos históricos de la estación: Murcia-Puente Tocinos
Diario Informe para Abril 4, 2019 Unidades:  Ambas    Ingés   Métrico
Diario Semanal Mensual Anual
  Máxima: Mínima: Promedio:
Temperatura: 87.3 °F /  30.7 °C 72.3 °F /  22.4 °C 79.3 °F /  26.3 °C
Punto de rocio: 70.5 °F /  21.4 °C 59.5 °F /  15.3 °C 64.6 °F /  18.1 °C
Humedad: 79% 42% 62%
Velocidad viento: 12mph /  19.3km/h - 5.6mph /  9km/h
Racha viento: 21mph /  33.8km/h - -
Viento- - ESE
Presión: 30 in /  1015.5 hPa 29.9 in /  1012.2 hPa -
Precipitación: 0 in /  0.0 mm    
 
 
Tabla de datos para Abril 4, 2019
Hora Temperatura Punto de rocio Presión Viento Velocidad viento Racha viento Humedad Intensidad lluvia(por hora) Nubes
00:00 75.9 °F /  24.4 °C 65.8 °F /  18.8 °C 29.9in /  1012.9hPa NE 5mph /  8km/h 7mph /  11.3km/h 71% 0in /  0.0mm
00:05 75.9 °F /  24.4 °C 65.8 °F /  18.8 °C 29.9in /  1013.1hPa NE 5mph /  8km/h 7mph /  11.3km/h 71% 0in /  0.0mm
00:10 75.7 °F /  24.3 °C 65.7 °F /  18.7 °C 29.9in /  1013.1hPa NE 5.2mph /  8.4km/h 8.1mph /  13km/h 71% 0in /  0.0mm
00:15 75.7 °F /  24.3 °C 65.7 °F /  18.7 °C 29.9in /  1013.1hPa NE 5mph /  8km/h 9mph /  14.5km/h 71% 0in /  0.0mm
00:20 75.7 °F /  24.3 °C 65.7 °F /  18.7 °C 29.9in /  1013.2hPa NNE 4.3mph /  6.9km/h 6.9mph /  11.1km/h 71% 0in /  0.0mm
00:25 75.7 °F /  24.3 °C 66 °F /  18.9 °C 29.9in /  1013.2hPa NE 5mph /  8km/h 7mph /  11.3km/h 72% 0in /  0.0mm
00:30 75.7 °F /  24.3 °C 66 °F /  18.9 °C 29.9in /  1013.2hPa NE 5mph /  8km/h 6mph /  9.7km/h 72% 0in /  0.0mm
00:35 75.6 °F /  24.2 °C 65.8 °F /  18.8 °C 29.9in /  1013.1hPa NE 5mph /  8km/h 7mph /  11.3km/h 72% 0in /  0.0mm
00:40 75.6 °F /  24.2 °C 66.4 °F /  19.1 °C 29.9in /  1013.1hPa NE 5mph /  8km/h 8mph /  12.9km/h 73% 0in /  0.0mm
00:45 75.4 °F /  24.1 °C 66 °F /  18.9 °C 29.9in /  1013.1hPa NE 5mph /  8km/h 7mph /  11.3km/h 73% 0in /  0.0mm
00:50 75.4 °F /  24.1 °C 66 °F /  18.9 °C 29.9in /  1013.2hPa NE 4.7mph /  7.6km/h 4.6mph /  7.4km/h 73% 0in /  0.0mm
00:55 75.4 °F /  24.1 °C 66 °F /  18.9 °C 29.9in /  1013.2hPa NE 5mph /  8km/h 7mph /  11.3km/h 73% 0in /  0.0mm
01:00 75.4 °F /  24.1 °C 66 °F /  18.9 °C 29.9in /  1013.2hPa NNE 5mph /  8km/h 6mph /  9.7km/h 73% 0in /  0.0mm
01:05 75.4 °F /  24.1 °C 66 °F /  18.9 °C 29.9in /  1013.2hPa NNE 5mph /  8km/h 5mph /  8km/h 73% 0in /  0.0mm
01:10 75.4 °F /  24.1 °C 66 °F /  18.9 °C 29.9in /  1013.2hPa NNE 3mph /  4.8km/h 5mph /  8km/h 73% 0in /  0.0mm
01:15 75.4 °F /  24.1 °C 66.6 °F /  19.2 °C 29.9in /  1013.2hPa NNE 3mph /  4.8km/h 5mph /  8km/h 74% 0in /  0.0mm
01:20 75.4 °F /  24.1 °C 66.6 °F /  19.2 °C 29.9in /  1013.1hPa NE 2.9mph /  4.7km/h 4.7mph /  7.6km/h 74% 0in /  0.0mm
01:25 75.4 °F /  24.1 °C 66.6 °F /  19.2 °C 29.9in /  1013.1hPa NE 2mph /  3.2km/h 7mph /  11.3km/h 74% 0in /  0.0mm
01:30 75 °F /  23.9 °C 66.2 °F /  19 °C 29.9in /  1013.1hPa NNO 4mph /  6.4km/h 4.6mph /  7.4km/h 74% 0in /  0.0mm
01:35 75 °F /  23.9 °C 66.6 °F /  19.2 °C 29.9in /  1013.1hPa NNO 5mph /  8km/h 4mph /  6.4km/h 75% 0in /  0.0mm
01:40 75 °F /  23.9 °C 66.6 °F /  19.2 °C 29.9in /  1013.1hPa NNO 2mph /  3.2km/h 2.3mph /  3.7km/h 75% 0in /  0.0mm
01:45 75 °F /  23.9 °C 66.2 °F /  19 °C 29.9in /  1013.1hPa NNO 2mph /  3.2km/h 3mph /  4.8km/h 74% 0in /  0.0mm
01:50 75 °F /  23.9 °C 66.2 °F /  19 °C 29.9in /  1012.9hPa North 1.8mph /  2.9km/h 3.6mph /  5.8km/h 74% 0in /  0.0mm
01:55 75 °F /  23.9 °C 66.2 °F /  19 °C 29.9in /  1012.9hPa North 2mph /  3.2km/h 4mph /  6.4km/h 74% 0in /  0.0mm
02:00 74.8 °F /  23.8 °C 66.4 °F /  19.1 °C 29.9in /  1012.9hPa North 2mph /  3.2km/h 5mph /  8km/h 75% 0in /  0.0mm
02:05 74.8 °F /  23.8 °C 66.4 °F /  19.1 °C 29.9in /  1012.9hPa NNE 2mph /  3.2km/h 5mph /  8km/h 75% 0in /  0.0mm
02:10 74.8 °F /  23.8 °C 66.4 °F /  19.1 °C 29.9in /  1012.9hPa NNE 2mph /  3.2km/h 2.9mph /  4.7km/h 75% 0in /  0.0mm
02:15 74.8 °F /  23.8 °C 66.4 °F /  19.1 °C 29.9in /  1012.9hPa NNE 2mph /  3.2km/h 4mph /  6.4km/h 75% 0in /  0.0mm
02:20 74.7 °F /  23.7 °C 66.6 °F /  19.2 °C 29.9in /  1012.5hPa North 1.8mph /  2.9km/h   76% 0in /  0.0mm
02:25 74.7 °F /  23.7 °C 66.6 °F /  19.2 °C 29.9in /  1012.5hPa North 2mph /  3.2km/h 4mph /  6.4km/h 76% 0in /  0.0mm
02:30 74.7 °F /  23.7 °C 66.6 °F /  19.2 °C 29.9in /  1012.5hPa NNO 1.8mph /  2.9km/h 4.6mph /  7.4km/h 76% 0in /  0.0mm
02:35 74.5 °F /  23.6 °C 66.4 °F /  19.1 °C 29.9in /  1012.2hPa NNO 2mph /  3.2km/h 4mph /  6.4km/h 76% 0in /  0.0mm
02:40 74.5 °F /  23.6 °C 66.4 °F /  19.1 °C 29.9in /  1012.2hPa NO 1.8mph /  2.9km/h 3.5mph /  5.6km/h 76% 0in /  0.0mm
02:45 74.5 °F /  23.6 °C 66.4 °F /  19.1 °C 29.9in /  1012.2hPa NO 2mph /  3.2km/h 4mph /  6.4km/h 76% 0in /  0.0mm
02:50 74.1 °F /  23.4 °C 65.7 °F /  18.7 °C 29.9in /  1012.3hPa OSO 2.4mph /  3.9km/h 4.6mph /  7.4km/h 75% 0in /  0.0mm
02:55 73.9 °F /  23.3 °C 65.7 °F /  18.7 °C 29.9in /  1012.3hPa Oeste 2mph /  3.2km/h 6mph /  9.7km/h 75% 0in /  0.0mm
03:00 73.8 °F /  23.2 °C 65.3 °F /  18.5 °C 29.9in /  1012.3hPa Oeste 3mph /  4.8km/h 6mph /  9.7km/h 75% 0in /  0.0mm
03:05 73.8 °F /  23.2 °C 65.7 °F /  18.7 °C 29.9in /  1012.4hPa SO 3.6mph /  5.8km/h 4.6mph /  7.4km/h 76% 0in /  0.0mm
03:10 73.8 °F /  23.2 °C 65.7 °F /  18.7 °C 29.9in /  1012.4hPa Oeste 3.6mph /  5.8km/h 5.8mph /  9.3km/h 76% 0in /  0.0mm
03:15 73.9 °F /  23.3 °C 65.8 °F /  18.8 °C 29.9in /  1012.4hPa OSO 3mph /  4.8km/h 6mph /  9.7km/h 76% 0in /  0.0mm
03:20 74.1 °F /  23.4 °C 66 °F /  18.9 °C 29.9in /  1012.4hPa SO 4mph /  6.4km/h 4.6mph /  7.4km/h 76% 0in /  0.0mm
03:25 74.3 °F /  23.5 °C 66.2 °F /  19 °C 29.9in /  1012.4hPa OSO 5mph /  8km/h 5mph /  8km/h 76% 0in /  0.0mm
03:30 74.5 °F /  23.6 °C 66.4 °F /  19.1 °C 29.9in /  1012.4hPa OSO 3mph /  4.8km/h 6mph /  9.7km/h 76% 0in /  0.0mm
03:35 74.5 °F /  23.6 °C 66.4 °F /  19.1 °C 29.9in /  1012.5hPa OSO 3mph /  4.8km/h 5mph /  8km/h 76% 0in /  0.0mm
03:40 74.7 °F /  23.7 °C 66.2 °F /  19 °C 29.9in /  1012.5hPa SSO 2.9mph /  4.7km/h 6.9mph /  11.1km/h 75% 0in /  0.0mm
03:45 74.7 °F /  23.7 °C 65.8 °F /  18.8 °C 29.9in /  1012.5hPa SO 2mph /  3.2km/h 8mph /  12.9km/h 74% 0in /  0.0mm
03:50 74.5 °F /  23.6 °C 65.3 °F /  18.5 °C 29.9in /  1012.6hPa SSO 5.2mph /  8.4km/h 6.9mph /  11.1km/h 73% 0in /  0.0mm
03:55 74.5 °F /  23.6 °C 64.9 °F /  18.3 °C 29.9in /  1012.6hPa SO 5mph /  8km/h 8mph /  12.9km/h 72% 0in /  0.0mm
04:00 74.3 °F /  23.5 °C 64.8 °F /  18.2 °C 29.9in /  1012.6hPa SO 5mph /  8km/h 8mph /  12.9km/h 72% 0in /  0.0mm
04:05 74.1 °F /  23.4 °C 64 °F /  17.8 °C 29.9in /  1012.6hPa SSO 5mph /  8km/h 8mph /  12.9km/h 71% 0in /  0.0mm
04:10 73.8 °F /  23.2 °C 64.2 °F /  17.9 °C 29.9in /  1012.6hPa SSO 4.7mph /  7.6km/h 5.4mph /  8.7km/h 72% 0in /  0.0mm
04:15 73.6 °F /  23.1 °C 64 °F /  17.8 °C 29.9in /  1012.6hPa Sur 5mph /  8km/h 7mph /  11.3km/h 72% 0in /  0.0mm
04:20 73.6 °F /  23.1 °C 64 °F /  17.8 °C 29.9in /  1012.5hPa Sur 5mph /  8km/h 8mph /  12.9km/h 72% 0in /  0.0mm
04:25 73.4 °F /  23 °C 64.2 °F /  17.9 °C 29.9in /  1012.5hPa Sur 5mph /  8km/h 8mph /  12.9km/h 73% 0in /  0.0mm
04:30 73.4 °F /  23 °C 64.2 °F /  17.9 °C 29.9in /  1012.5hPa Sur 5mph /  8km/h 7mph /  11.3km/h 73% 0in /  0.0mm
04:35 73.4 °F /  23 °C 64.2 °F /  17.9 °C 29.9in /  1012.7hPa Sur 5mph /  8km/h 8mph /  12.9km/h 73% 0in /  0.0mm
04:40 73.2 °F /  22.9 °C 64 °F /  17.8 °C 29.9in /  1012.7hPa SSO 5mph /  8km/h 9mph /  14.5km/h 73% 0in /  0.0mm
04:45 73.2 °F /  22.9 °C 64 °F /  17.8 °C 29.9in /  1012.7hPa SSO 5mph /  8km/h 8mph /  12.9km/h 73% 0in /  0.0mm
04:50 73.2 °F /  22.9 °C 64 °F /  17.8 °C 29.9in /  1012.8hPa SSO 5mph /  8km/h 8mph /  12.9km/h 73% 0in /  0.0mm
04:55 73.4 °F /  23 °C 64.2 °F /  17.9 °C 29.9in /  1012.8hPa SSO 5mph /  8km/h 8mph /  12.9km/h 73% 0in /  0.0mm
05:00 73.4 °F /  23 °C 64.2 °F /  17.9 °C 29.9in /  1012.8hPa SSO 5mph /  8km/h 7mph /  11.3km/h 73% 0in /  0.0mm
05:05 73.4 °F /  23 °C 64.2 °F /  17.9 °C 29.9in /  1012.8hPa SSO 5mph /  8km/h 6mph /  9.7km/h 73% 0in /  0.0mm
05:10 73.4 °F /  23 °C 63.9 °F /  17.7 °C 29.9in /  1012.8hPa SSO 3.6mph /  5.8km/h 5.8mph /  9.3km/h 72% 0in /  0.0mm
05:15 73.4 °F /  23 °C 63.9 °F /  17.7 °C 29.9in /  1012.8hPa SSO 3mph /  4.8km/h 6mph /  9.7km/h 72% 0in /  0.0mm
05:20 73.4 °F /  23 °C 63.3 °F /  17.4 °C 29.9in /  1012.9hPa SSO 3.6mph /  5.8km/h 9.2mph /  14.8km/h 71% 0in /  0.0mm
05:25 73.6 °F /  23.1 °C 63.5 °F /  17.5 °C 29.9in /  1012.9hPa SSO 3mph /  4.8km/h 9mph /  14.5km/h 71% 0in /  0.0mm
05:30 73.6 °F /  23.1 °C 63.1 °F /  17.3 °C 29.9in /  1012.9hPa SO 5.4mph /  8.7km/h 3.5mph /  5.6km/h 70% 0in /  0.0mm
05:35 73.6 °F /  23.1 °C 63.1 °F /  17.3 °C 29.9in /  1013.0hPa SO 6mph /  9.7km/h 8mph /  12.9km/h 70% 0in /  0.0mm
05:40 73.6 °F /  23.1 °C 63.1 °F /  17.3 °C 29.9in /  1013.0hPa OSO 3mph /  4.8km/h 5mph /  8km/h 70% 0in /  0.0mm
05:45 73.6 °F /  23.1 °C 63.1 °F /  17.3 °C 29.9in /  1013.0hPa Oeste 3mph /  4.8km/h 5mph /  8km/h 70% 0in /  0.0mm
05:50 73.2 °F /  22.9 °C 63 °F /  17.2 °C 29.9in /  1013.1hPa Oeste 2mph /  3.2km/h 5mph /  8km/h 70% 0in /  0.0mm
05:55 73.2 °F /  22.9 °C 62.8 °F /  17.1 °C 29.9in /  1013.1hPa Oeste 2mph /  3.2km/h 5mph /  8km/h 70% 0in /  0.0mm
06:00 73 °F /  22.8 °C 62.8 °F /  17.1 °C 29.9in /  1013.1hPa Oeste 2mph /  3.2km/h 5mph /  8km/h 70% 0in /  0.0mm
06:05 73 °F /  22.8 °C 62.8 °F /  17.1 °C 29.9in /  1013.4hPa Oeste 2mph /  3.2km/h 4mph /  6.4km/h 70% 0in /  0.0mm
06:10 72.9 °F /  22.7 °C 62.4 °F /  16.9 °C 29.9in /  1013.4hPa Oeste 2mph /  3.2km/h 5mph /  8km/h 70% 0in /  0.0mm
06:15 72.9 °F /  22.7 °C 62.4 °F /  16.9 °C 29.9in /  1013.4hPa ONO 2.4mph /  3.9km/h 4.6mph /  7.4km/h 70% 0in /  0.0mm
06:20 72.9 °F /  22.7 °C 62.4 °F /  16.9 °C 29.9in /  1013.3hPa ONO 2mph /  3.2km/h 5mph /  8km/h 70% 0in /  0.0mm
06:25 72.9 °F /  22.7 °C 62.4 °F /  16.9 °C 29.9in /  1013.3hPa ONO 2mph /  3.2km/h 5mph /  8km/h 70% 0in /  0.0mm
06:30 72.9 °F /  22.7 °C 62.4 °F /  16.9 °C 29.9in /  1013.3hPa ONO 2mph /  3.2km/h 5mph /  8km/h 70% 0in /  0.0mm
06:35 72.7 °F /  22.6 °C 62.2 °F /  16.8 °C 29.9in /  1013.5hPa Oeste 2mph /  3.2km/h 5mph /  8km/h 70% 0in /  0.0mm
06:40 72.7 °F /  22.6 °C 62.2 °F /  16.8 °C 29.9in /  1013.5hPa Oeste 2mph /  3.2km/h 6mph /  9.7km/h 70% 0in /  0.0mm
06:45 72.9 °F /  22.7 °C 62.4 °F /  16.9 °C 29.9in /  1013.5hPa Oeste 2mph /  3.2km/h 6mph /  9.7km/h 70% 0in /  0.0mm
06:50 72.9 °F /  22.7 °C 63 °F /  17.2 °C 29.9in /  1013.6hPa Oeste 2.9mph /  4.7km/h 4.6mph /  7.4km/h 71% 0in /  0.0mm
06:55 72.9 °F /  22.7 °C 62.8 °F /  17.1 °C 29.9in /  1013.6hPa Oeste 2mph /  3.2km/h 5mph /  8km/h 71% 0in /  0.0mm
07:00 72.7 °F /  22.6 °C 62.8 °F /  17.1 °C 29.9in /  1013.6hPa Oeste 2mph /  3.2km/h 4mph /  6.4km/h 71% 0in /  0.0mm
07:05 72.7 °F /  22.6 °C 62.8 °F /  17.1 °C 29.9in /  1013.6hPa Oeste 2mph /  3.2km/h 5mph /  8km/h 71% 0in /  0.0mm
07:10 72.7 °F /  22.6 °C 62.8 °F /  17.1 °C 29.9in /  1013.6hPa Oeste 2mph /  3.2km/h 2.3mph /  3.7km/h 71% 0in /  0.0mm
07:15 72.7 °F /  22.6 °C 62.8 °F /  17.1 °C 29.9in /  1013.6hPa Oeste 2mph /  3.2km/h 3mph /  4.8km/h 71% 0in /  0.0mm
07:20 72.9 °F /  22.7 °C 63 °F /  17.2 °C 29.9in /  1013.6hPa SE 1.8mph /  2.9km/h 3.5mph /  5.6km/h 71% 0in /  0.0mm
07:25 72.9 °F /  22.7 °C 63.3 °F /  17.4 °C 29.9in /  1013.6hPa SSE 2mph /  3.2km/h 4mph /  6.4km/h 72% 0in /  0.0mm
07:30 72.7 °F /  22.6 °C 63.1 °F /  17.3 °C 29.9in /  1013.6hPa NE 2mph /  3.2km/h 4.6mph /  7.4km/h 72% 0in /  0.0mm
07:35 72.7 °F /  22.6 °C 63.1 °F /  17.3 °C 29.9in /  1013.1hPa ENE 2mph /  3.2km/h 5mph /  8km/h 72% 0in /  0.0mm
07:40 72.5 °F /  22.5 °C 63 °F /  17.2 °C 29.9in /  1013.1hPa North 2mph /  3.2km/h 2.3mph /  3.7km/h 72% 0in /  0.0mm
07:45 72.3 °F /  22.4 °C 62.8 °F /  17.1 °C 29.9in /  1013.1hPa North 2mph /  3.2km/h 2mph /  3.2km/h 72% 0in /  0.0mm
07:50 72.5 °F /  22.5 °C 63 °F /  17.2 °C 29.9in /  1013.2hPa Calm   4.6mph /  7.4km/h 72% 0in /  0.0mm
07:55 72.5 °F /  22.5 °C 63.3 °F /  17.4 °C 29.9in /  1013.2hPa Calm   5mph /  8km/h 73% 0in /  0.0mm
08:00 72.5 °F /  22.5 °C 63.3 °F /  17.4 °C 29.9in /  1013.2hPa Este 2mph /  3.2km/h 5mph /  8km/h 73% 0in /  0.0mm
08:05 72.5 °F /  22.5 °C 63 °F /  17.2 °C 29.9in /  1013.4hPa SSE 2mph /  3.2km/h 5mph /  8km/h 72% 0in /  0.0mm
08:10 72.7 °F /  22.6 °C 62.8 °F /  17.1 °C 29.9in /  1013.4hPa SE 3.1mph /  5km/h 4.6mph /  7.4km/h 71% 0in /  0.0mm
08:15 72.9 °F /  22.7 °C 62.1 °F /  16.7 °C 29.9in /  1013.4hPa SE 3.1mph /  5km/h 5.8mph /  9.3km/h 69% 0in /  0.0mm
08:20 73.2 °F /  22.9 °C 62.1 °F /  16.7 °C 29.9in /  1013.5hPa SSE 5mph /  8km/h 8mph /  12.9km/h 68% 0in /  0.0mm
08:25 73.2 °F /  22.9 °C 61.5 °F /  16.4 °C 29.9in /  1013.5hPa SO 4.3mph /  6.9km/h 5.8mph /  9.3km/h 67% 0in /  0.0mm
08:30 73.4 °F /  23 °C 61.3 °F /  16.3 °C 29.9in /  1013.5hPa Sur 4.7mph /  7.6km/h 8.1mph /  13km/h 66% 0in /  0.0mm
08:35 73.6 °F /  23.1 °C 61.5 °F /  16.4 °C 29.9in /  1013.7hPa SSO 5mph /  8km/h 9mph /  14.5km/h 66% 0in /  0.0mm
08:40 73.4 °F /  23 °C 61.3 °F /  16.3 °C 29.9in /  1013.7hPa SSO 5.9mph /  9.5km/h 6.9mph /  11.1km/h 66% 0in /  0.0mm
08:45 73.6 °F /  23.1 °C 61.5 °F /  16.4 °C 29.9in /  1013.7hPa SSO 6mph /  9.7km/h 7mph /  11.3km/h 66% 0in /  0.0mm
08:50 73.8 °F /  23.2 °C 61.3 °F /  16.3 °C 29.9in /  1013.6hPa SSO 5mph /  8km/h 7mph /  11.3km/h 65% 0in /  0.0mm
08:55 73.9 °F /  23.3 °C 61.3 °F /  16.3 °C 29.9in /  1013.6hPa SSO 5mph /  8km/h 7mph /  11.3km/h 65% 0in /  0.0mm
09:00 74.3 °F /  23.5 °C 61.3 °F /  16.3 °C 29.9in /  1013.6hPa SSO 5mph /  8km/h 7mph /  11.3km/h 64% 0in /  0.0mm
09:05 74.7 °F /  23.7 °C 61.7 °F /  16.5 °C 29.9in /  1013.6hPa SO 5mph /  8km/h 7mph /  11.3km/h 64% 0in /  0.0mm
09:10 74.8 °F /  23.8 °C 61.3 °F /  16.3 °C 29.9in /  1013.6hPa SO 5mph /  8km/h 10mph /  16.1km/h 63% 0in /  0.0mm
09:15 75 °F /  23.9 °C 61.5 °F /  16.4 °C 29.9in /  1013.6hPa SSO 5mph /  8km/h 9mph /  14.5km/h 63% 0in /  0.0mm
09:20 75.4 °F /  24.1 °C 61.3 °F /  16.3 °C 29.9in /  1013.8hPa SSO 5mph /  8km/h 7mph /  11.3km/h 62% 0in /  0.0mm
09:25 75.6 °F /  24.2 °C 61.2 °F /  16.2 °C 29.9in /  1013.8hPa SO 5mph /  8km/h 8mph /  12.9km/h 61% 0in /  0.0mm
09:30 75.6 °F /  24.2 °C 61.2 °F /  16.2 °C 29.9in /  1013.8hPa SO 5mph /  8km/h 7mph /  11.3km/h 61% 0in /  0.0mm
09:35 75.7 °F /  24.3 °C 60.8 °F /  16 °C 29.9in /  1013.9hPa OSO 5mph /  8km/h 8mph /  12.9km/h 60% 0in /  0.0mm
09:40 76.3 °F /  24.6 °C 61.3 °F /  16.3 °C 29.9in /  1013.9hPa SSO 4.3mph /  6.9km/h 5.8mph /  9.3km/h 60% 0in /  0.0mm
09:45 76.5 °F /  24.7 °C 61.2 °F /  16.2 °C 29.9in /  1013.9hPa OSO 5mph /  8km/h 5mph /  8km/h 59% 0in /  0.0mm
09:50 76.8 °F /  24.9 °C 61 °F /  16.1 °C 29.9in /  1014.0hPa OSO 3.6mph /  5.8km/h 6.9mph /  11.1km/h 58% 0in /  0.0mm
09:55 77.2 °F /  25.1 °C 60.8 °F /  16 °C 29.9in /  1014.0hPa SO 3mph /  4.8km/h 8mph /  12.9km/h 57% 0in /  0.0mm
10:00 77.2 °F /  25.1 °C 60.8 °F /  16 °C 29.9in /  1014.0hPa SO 5mph /  8km/h 9mph /  14.5km/h 57% 0in /  0.0mm
10:05 77.4 °F /  25.2 °C 61 °F /  16.1 °C 30in /  1014.2hPa SO 4.3mph /  6.9km/h 6.9mph /  11.1km/h 57% 0in /  0.0mm
10:10 77.9 °F /  25.5 °C 61 °F /  16.1 °C 30in /  1014.2hPa SSO 5mph /  8km/h 7mph /  11.3km/h 56% 0in /  0.0mm
10:15 78.1 °F /  25.6 °C 61.2 °F /  16.2 °C 30in /  1014.2hPa Sur 4.7mph /  7.6km/h 5.9mph /  9.5km/h 56% 0in /  0.0mm
10:20 78.3 °F /  25.7 °C 60.8 °F /  16 °C 30in /  1014.2hPa OSO 4.7mph /  7.6km/h 6.9mph /  11.1km/h 55% 0in /  0.0mm
10:25 78.4 °F /  25.8 °C 61 °F /  16.1 °C 30in /  1014.2hPa SO 5mph /  8km/h 8mph /  12.9km/h 55% 0in /  0.0mm
10:30 79 °F /  26.1 °C 61 °F /  16.1 °C 30in /  1014.2hPa OSO 3.6mph /  5.8km/h 5.8mph /  9.3km/h 54% 0in /  0.0mm
10:35 79.3 °F /  26.3 °C 60.6 °F /  15.9 °C 29.9in /  1014.1hPa SSO 3mph /  4.8km/h 6mph /  9.7km/h 53% 0in /  0.0mm
10:40 80.1 °F /  26.7 °C 60.8 °F /  16 °C 29.9in /  1014.1hPa Sur 3.6mph /  5.8km/h 6.2mph /  10km/h 52% 0in /  0.0mm
10:45 80.2 °F /  26.8 °C 61 °F /  16.1 °C 29.9in /  1014.1hPa Sur 3mph /  4.8km/h 6mph /  9.7km/h 52% 0in /  0.0mm
10:50 80.6 °F /  27 °C 60.8 °F /  16 °C 30in /  1014.2hPa NO 3.6mph /  5.8km/h 3.5mph /  5.6km/h 51% 0in /  0.0mm
10:55 81 °F /  27.2 °C 61.2 °F /  16.2 °C 30in /  1014.2hPa North 3mph /  4.8km/h 5mph /  8km/h 51% 0in /  0.0mm
11:00 81.5 °F /  27.5 °C 61.2 °F /  16.2 °C 30in /  1014.2hPa NO 2mph /  3.2km/h 4mph /  6.4km/h 50% 0in /  0.0mm
11:05 82.2 °F /  27.9 °C 60.1 °F /  15.6 °C 30in /  1014.2hPa NNO 2mph /  3.2km/h 7mph /  11.3km/h 47% 0in /  0.0mm
11:10 82.2 °F /  27.9 °C 60.6 °F /  15.9 °C 30in /  1014.2hPa NE 3.6mph /  5.8km/h 6.9mph /  11.1km/h 48% 0in /  0.0mm
11:15 82 °F /  27.8 °C 60.4 °F /  15.8 °C 30in /  1014.2hPa NE 3mph /  4.8km/h 8mph /  12.9km/h 48% 0in /  0.0mm
11:20 82 °F /  27.8 °C 60.4 °F /  15.8 °C 29.9in /  1014.1hPa Este 5.2mph /  8.4km/h 5.2mph /  8.4km/h 48% 0in /  0.0mm
11:25 82.2 °F /  27.9 °C 60.1 °F /  15.6 °C 29.9in /  1014.1hPa ENE 5mph /  8km/h 9mph /  14.5km/h 47% 0in /  0.0mm
11:30 82.6 °F /  28.1 °C 60.3 °F /  15.7 °C 29.9in /  1014.1hPa ENE 5.2mph /  8.4km/h 8.1mph /  13km/h 47% 0in /  0.0mm
11:35 82.8 °F /  28.2 °C 60.4 °F /  15.8 °C 29.9in /  1014.1hPa NE 5mph /  8km/h 10mph /  16.1km/h 47% 0in /  0.0mm
11:40 82.8 °F /  28.2 °C 60.4 °F /  15.8 °C 29.9in /  1014.1hPa ENE 6mph /  9.7km/h 10mph /  16.1km/h 47% 0in /  0.0mm
11:45 82.9 °F /  28.3 °C 60.6 °F /  15.9 °C 29.9in /  1014.1hPa NNE 5.9mph /  9.5km/h 8.1mph /  13km/h 47% 0in /  0.0mm
11:50 83.1 °F /  28.4 °C 60.8 °F /  16 °C 29.9in /  1014.1hPa NE 5mph /  8km/h 10mph /  16.1km/h 47% 0in /  0.0mm
11:55 83.5 °F /  28.6 °C 61.2 °F /  16.2 °C 29.9in /  1014.1hPa NNE 5.2mph /  8.4km/h 4.6mph /  7.4km/h 47% 0in /  0.0mm
12:00 83.8 °F /  28.8 °C 60.8 °F /  16 °C 29.9in /  1014.1hPa NNE 5mph /  8km/h 13mph /  20.9km/h 46% 0in /  0.0mm
12:05 84 °F /  28.9 °C 60.4 °F /  15.8 °C 29.9in /  1013.8hPa NNE 5mph /  8km/h 13mph /  20.9km/h 45% 0in /  0.0mm
12:10 84 °F /  28.9 °C 60.4 °F /  15.8 °C 29.9in /  1013.8hPa NE 6.9mph /  11.1km/h 6.9mph /  11.1km/h 45% 0in /  0.0mm
12:15 84 °F /  28.9 °C 60.4 °F /  15.8 °C 29.9in /  1013.8hPa ENE 7mph /  11.3km/h 7mph /  11.3km/h 45% 0in /  0.0mm
12:20 84.6 °F /  29.2 °C 61 °F /  16.1 °C 29.9in /  1013.7hPa NNE 3.6mph /  5.8km/h 12.7mph /  20.4km/h 45% 0in /  0.0mm
12:25 84.7 °F /  29.3 °C 60.4 °F /  15.8 °C 29.9in /  1013.7hPa NNE 3mph /  4.8km/h 12mph /  19.3km/h 44% 0in /  0.0mm
12:30 85.1 °F /  29.5 °C 60.1 °F /  15.6 °C 29.9in /  1013.7hPa NNO 4.3mph /  6.9km/h 6.9mph /  11.1km/h 43% 0in /  0.0mm
12:35 85.1 °F /  29.5 °C 60.1 °F /  15.6 °C 29.9in /  1013.8hPa NE 5mph /  8km/h 9mph /  14.5km/h 43% 0in /  0.0mm
12:40 85.5 °F /  29.7 °C 60.4 °F /  15.8 °C 29.9in /  1013.8hPa NE 5.2mph /  8.4km/h 9.2mph /  14.8km/h 43% 0in /  0.0mm
12:45 85.3 °F /  29.6 °C 59.5 °F /  15.3 °C 29.9in /  1013.8hPa NNE 5mph /  8km/h 12mph /  19.3km/h 42% 0in /  0.0mm
12:50 85.3 °F /  29.6 °C 60.3 °F /  15.7 °C 29.9in /  1013.9hPa Este 6.2mph /  10km/h 5.4mph /  8.7km/h 43% 0in /  0.0mm
12:55 85.6 °F /  29.8 °C 61.2 °F /  16.2 °C 29.9in /  1013.9hPa NE 6mph /  9.7km/h 13mph /  20.9km/h 44% 0in /  0.0mm
13:00 85.8 °F /  29.9 °C 60.6 °F /  15.9 °C 29.9in /  1013.9hPa NE 6mph /  9.7km/h 12mph /  19.3km/h 43% 0in /  0.0mm
13:05 86.2 °F /  30.1 °C 61.2 °F /  16.2 °C 29.9in /  1013.8hPa NE 6mph /  9.7km/h 12mph /  19.3km/h 43% 0in /  0.0mm
13:10 86.2 °F /  30.1 °C 60.4 °F /  15.8 °C 29.9in /  1013.8hPa Este 8.1mph /  13km/h 10.4mph /  16.7km/h 42% 0in /  0.0mm
13:15 86.4 °F /  30.2 °C 60.6 °F /  15.9 °C 29.9in /  1013.8hPa ENE 8mph /  12.9km/h 16mph /  25.7km/h 42% 0in /  0.0mm
13:20 86.4 °F /  30.2 °C 60.6 °F /  15.9 °C 29.9in /  1013.7hPa ENE 8mph /  12.9km/h 16mph /  25.7km/h 42% 0in /  0.0mm
13:25 86.5 °F /  30.3 °C 60.6 °F /  15.9 °C 29.9in /  1013.7hPa NE 8mph /  12.9km/h 16mph /  25.7km/h 42% 0in /  0.0mm
13:30 86.5 °F /  30.3 °C 61.3 °F /  16.3 °C 29.9in /  1013.7hPa NE 7.4mph /  11.9km/h 13.8mph /  22.2km/h 43% 0in /  0.0mm
13:35 86.4 °F /  30.2 °C 61.9 °F /  16.6 °C 29.9in /  1013.7hPa ENE 7mph /  11.3km/h 15mph /  24.1km/h 44% 0in /  0.0mm
13:40 86.5 °F /  30.3 °C 62.1 °F /  16.7 °C 29.9in /  1013.7hPa NE 8.5mph /  13.7km/h 16.1mph /  25.9km/h 44% 0in /  0.0mm
13:45 86.7 °F /  30.4 °C 62.2 °F /  16.8 °C 29.9in /  1013.7hPa ENE 8mph /  12.9km/h 16mph /  25.7km/h 44% 0in /  0.0mm
13:50 86.7 °F /  30.4 °C 62.2 °F /  16.8 °C 29.9in /  1013.5hPa ENE 8.5mph /  13.7km/h 11.5mph /  18.5km/h 44% 0in /  0.0mm
13:55 87.1 °F /  30.6 °C 62.4 °F /  16.9 °C 29.9in /  1013.5hPa ENE 8mph /  12.9km/h 15mph /  24.1km/h 44% 0in /  0.0mm
14:00 86.2 °F /  30.1 °C 61.7 °F /  16.5 °C 29.9in /  1013.5hPa ENE 9mph /  14.5km/h 16mph /  25.7km/h 44% 0in /  0.0mm
14:05 86 °F /  30 °C 62.2 °F /  16.8 °C 29.9in /  1013.4hPa ENE 9mph /  14.5km/h 15mph /  24.1km/h 45% 0in /  0.0mm
14:10 86 °F /  30 °C 62.2 °F /  16.8 °C 29.9in /  1013.4hPa ENE 9mph /  14.5km/h 16mph /  25.7km/h 45% 0in /  0.0mm
14:15 85.8 °F /  29.9 °C 62.1 °F /  16.7 °C 29.9in /  1013.4hPa ENE 9mph /  14.5km/h 15mph /  24.1km/h 45% 0in /  0.0mm
14:20 86.2 °F /  30.1 °C 62.2 °F /  16.8 °C 29.9in /  1013.4hPa Este 8.1mph /  13km/h 9.2mph /  14.8km/h 45% 0in /  0.0mm
14:25 86.2 °F /  30.1 °C 62.2 °F /  16.8 °C 29.9in /  1013.4hPa ENE 8mph /  12.9km/h 18mph /  29km/h 45% 0in /  0.0mm
14:30 85.6 °F /  29.8 °C 62.4 °F /  16.9 °C 29.9in /  1013.4hPa NE 8.7mph /  14km/h 17.3mph /  27.8km/h 46% 0in /  0.0mm
14:35 85.8 °F /  29.9 °C 61.3 °F /  16.3 °C 29.9in /  1013.4hPa NE 9mph /  14.5km/h 19mph /  30.6km/h 44% 0in /  0.0mm
14:40 85.8 °F /  29.9 °C 63.3 °F /  17.4 °C 29.9in /  1013.4hPa NNE 10.7mph /  17.2km/h 12.7mph /  20.4km/h 47% 0in /  0.0mm
14:45 86.4 °F /  30.2 °C 63.1 °F /  17.3 °C 29.9in /  1013.4hPa ENE 10mph /  16.1km/h 15mph /  24.1km/h 46% 0in /  0.0mm
14:50 86.5 °F /  30.3 °C 62.1 °F /  16.7 °C 29.9in /  1013.3hPa ENE 7.4mph /  11.9km/h 8.1mph /  13km/h 44% 0in /  0.0mm
14:55 86.9 °F /  30.5 °C 63.7 °F /  17.6 °C 29.9in /  1013.3hPa ENE 7mph /  11.3km/h 13mph /  20.9km/h 46% 0in /  0.0mm
15:00 86.5 °F /  30.3 °C 63.9 °F /  17.7 °C 29.9in /  1013.3hPa ENE 8mph /  12.9km/h 15mph /  24.1km/h 47% 0in /  0.0mm
15:05 85.8 °F /  29.9 °C 63.3 °F /  17.4 °C 29.9in /  1013.2hPa NE 8mph /  12.9km/h 17mph /  27.4km/h 47% 0in /  0.0mm
15:10 85.8 °F /  29.9 °C 63.3 °F /  17.4 °C 29.9in /  1013.2hPa NE 10mph /  16.1km/h 15mph /  24.1km/h 47% 0in /  0.0mm
15:15 85.6 °F /  29.8 °C 63.1 °F /  17.3 °C 29.9in /  1013.2hPa NNE 10mph /  16.1km/h 9.2mph /  14.8km/h 47% 0in /  0.0mm
15:20 85.8 °F /  29.9 °C 63.9 °F /  17.7 °C 29.9in /  1013.2hPa ENE 8.5mph /  13.7km/h 9.2mph /  14.8km/h 48% 0in /  0.0mm
15:25 86.2 °F /  30.1 °C 63.7 °F /  17.6 °C 29.9in /  1013.2hPa NE 8mph /  12.9km/h 16mph /  25.7km/h 47% 0in /  0.0mm
15:30 86.2 °F /  30.1 °C 63.7 °F /  17.6 °C 29.9in /  1013.2hPa ENE 9.7mph /  15.6km/h 15mph /  24.1km/h 47% 0in /  0.0mm
15:35 86.2 °F /  30.1 °C 64 °F /  17.8 °C 29.9in /  1012.9hPa NE 9mph /  14.5km/h 17mph /  27.4km/h 48% 0in /  0.0mm
15:40 86.5 °F /  30.3 °C 64.6 °F /  18.1 °C 29.9in /  1012.9hPa NE 9.2mph /  14.8km/h 13.8mph /  22.2km/h 48% 0in /  0.0mm
15:45 86.4 °F /  30.2 °C 63.9 °F /  17.7 °C 29.9in /  1012.9hPa NE 9mph /  14.5km/h 17mph /  27.4km/h 47% 0in /  0.0mm
15:50 86.5 °F /  30.3 °C 62.8 °F /  17.1 °C 29.9in /  1012.8hPa ENE 10mph /  16.1km/h 13.8mph /  22.2km/h 45% 0in /  0.0mm
15:55 86.7 °F /  30.4 °C 63.5 °F /  17.5 °C 29.9in /  1012.8hPa NE 10mph /  16.1km/h 19mph /  30.6km/h 46% 0in /  0.0mm
16:00 86.5 °F /  30.3 °C 63.3 °F /  17.4 °C 29.9in /  1012.8hPa NE 9mph /  14.5km/h 18mph /  29km/h 46% 0in /  0.0mm
16:05 86.7 °F /  30.4 °C 64 °F /  17.8 °C 29.9in /  1012.8hPa ENE 9mph /  14.5km/h 18mph /  29km/h 47% 0in /  0.0mm
16:10 87.1 °F /  30.6 °C 64.4 °F /  18 °C 29.9in /  1012.8hPa NE 8.5mph /  13.7km/h 15mph /  24.1km/h 47% 0in /  0.0mm
16:15 86.9 °F /  30.5 °C 64.8 °F /  18.2 °C 29.9in /  1012.8hPa ENE 8mph /  12.9km/h 16mph /  25.7km/h 48% 0in /  0.0mm
16:20 86.9 °F /  30.5 °C 64.2 °F /  17.9 °C 29.9in /  1012.7hPa ENE 8.5mph /  13.7km/h 16.1mph /  25.9km/h 47% 0in /  0.0mm
16:25 86.4 °F /  30.2 °C 64.4 °F /  18 °C 29.9in /  1012.7hPa NE 8mph /  12.9km/h 18mph /  29km/h 48% 0in /  0.0mm
16:30 86.4 °F /  30.2 °C 64.9 °F /  18.3 °C 29.9in /  1012.7hPa NE 10mph /  16.1km/h 16mph /  25.7km/h 49% 0in /  0.0mm
16:35 86.2 °F /  30.1 °C 65.5 °F /  18.6 °C 29.9in /  1012.6hPa NE 10mph /  16.1km/h 21mph /  33.8km/h 50% 0in /  0.0mm
16:40 86.2 °F /  30.1 °C 64.8 °F /  18.2 °C 29.9in /  1012.6hPa NNE 11.4mph /  18.3km/h 12.7mph /  20.4km/h 49% 0in /  0.0mm
16:45 86.5 °F /  30.3 °C 65.1 °F /  18.4 °C 29.9in /  1012.6hPa NE 12mph /  19.3km/h 17mph /  27.4km/h 49% 0in /  0.0mm
16:50 86.9 °F /  30.5 °C 66 °F /  18.9 °C 29.9in /  1012.6hPa ENE 9.2mph /  14.8km/h 11.5mph /  18.5km/h 50% 0in /  0.0mm
16:55 87.1 °F /  30.6 °C 65.7 °F /  18.7 °C 29.9in /  1012.6hPa ENE 9mph /  14.5km/h 17mph /  27.4km/h 49% 0in /  0.0mm
17:00 87.3 °F /  30.7 °C 65.8 °F /  18.8 °C 29.9in /  1012.6hPa Este 8mph /  12.9km/h 16mph /  25.7km/h 49% 0in /  0.0mm
17:05 86.9 °F /  30.5 °C 64.8 °F /  18.2 °C 29.9in /  1012.6hPa ENE 8mph /  12.9km/h 20mph /  32.2km/h 48% 0in /  0.0mm
17:10 86.5 °F /  30.3 °C 65.7 °F /  18.7 °C 29.9in /  1012.6hPa Este 10mph /  16.1km/h 13.8mph /  22.2km/h 50% 0in /  0.0mm
17:15 86.5 °F /  30.3 °C 64.6 °F /  18.1 °C 29.9in /  1012.6hPa ENE 10mph /  16.1km/h 21mph /  33.8km/h 48% 0in /  0.0mm
17:20 86.4 °F /  30.2 °C 64.4 °F /  18 °C 29.9in /  1012.5hPa ENE 9mph /  14.5km/h 20mph /  32.2km/h 48% 0in /  0.0mm
17:25 86.2 °F /  30.1 °C 64.8 °F /  18.2 °C 29.9in /  1012.5hPa ENE 9mph /  14.5km/h 18mph /  29km/h 49% 0in /  0.0mm
17:30 85.8 °F /  29.9 °C 64.6 °F /  18.1 °C 29.9in /  1012.5hPa NE 12mph /  19.3km/h 18mph /  29km/h 49% 0in /  0.0mm
17:35 85.8 °F /  29.9 °C 65.7 °F /  18.7 °C 29.9in /  1012.6hPa NE 12mph /  19.3km/h 19mph /  30.6km/h 51% 0in /  0.0mm
17:40 85.8 °F /  29.9 °C 65.7 °F /  18.7 °C 29.9in /  1012.6hPa NNO 10mph /  16.1km/h 12.7mph /  20.4km/h 51% 0in /  0.0mm
17:45 85.6 °F /  29.8 °C 65.5 °F /  18.6 °C 29.9in /  1012.6hPa ENE 10mph /  16.1km/h 20mph /  32.2km/h 51% 0in /  0.0mm
17:50 85.6 °F /  29.8 °C 64.9 °F /  18.3 °C 29.9in /  1012.4hPa North 10mph /  16.1km/h 14mph /  22.5km/h 50% 0in /  0.0mm
17:55 85.6 °F /  29.8 °C 64.2 °F /  17.9 °C 29.9in /  1012.4hPa ENE 10mph /  16.1km/h 16mph /  25.7km/h 49% 0in /  0.0mm
18:00 85.5 °F /  29.7 °C 65.3 °F /  18.5 °C 29.9in /  1012.4hPa ENE 9mph /  14.5km/h 19mph /  30.6km/h 51% 0in /  0.0mm
18:05 85.1 °F /  29.5 °C 64.9 °F /  18.3 °C 29.9in /  1012.4hPa ENE 9mph /  14.5km/h 18mph /  29km/h 51% 0in /  0.0mm
18:10 85.3 °F /  29.6 °C 65.1 °F /  18.4 °C 29.9in /  1012.4hPa Este 10.7mph /  17.2km/h 16.1mph /  25.9km/h 51% 0in /  0.0mm
18:15 85.3 °F /  29.6 °C 65.1 °F /  18.4 °C 29.9in /  1012.4hPa NE 10mph /  16.1km/h 14mph /  22.5km/h 51% 0in /  0.0mm
18:20 85.3 °F /  29.6 °C 65.1 °F /  18.4 °C 29.9in /  1012.6hPa ENE 9.2mph /  14.8km/h 12.7mph /  20.4km/h 51% 0in /  0.0mm
18:25 84.9 °F /  29.4 °C 64.8 °F /  18.2 °C 29.9in /  1012.6hPa ENE 9mph /  14.5km/h 17mph /  27.4km/h 51% 0in /  0.0mm
18:30 84.9 °F /  29.4 °C 65.3 °F /  18.5 °C 29.9in /  1012.6hPa ENE 9.2mph /  14.8km/h 12.7mph /  20.4km/h 52% 0in /  0.0mm
18:35 84.9 °F /  29.4 °C 65.3 °F /  18.5 °C 29.9in /  1012.5hPa NE 9mph /  14.5km/h 14mph /  22.5km/h 52% 0in /  0.0mm
18:40 84.7 °F /  29.3 °C 65.1 °F /  18.4 °C 29.9in /  1012.5hPa Este 8.1mph /  13km/h 13mph /  20.9km/h 52% 0in /  0.0mm
18:45 84.6 °F /  29.2 °C 66.6 °F /  19.2 °C 29.9in /  1012.5hPa ENE 8mph /  12.9km/h 16mph /  25.7km/h 55% 0in /  0.0mm
18:50 84 °F /  28.9 °C 66.6 °F /  19.2 °C 29.9in /  1012.5hPa NE 10mph /  16.1km/h 19mph /  30.6km/h 56% 0in /  0.0mm
18:55 83.8 °F /  28.8 °C 65.5 °F /  18.6 °C 29.9in /  1012.5hPa NE 10mph /  16.1km/h 17mph /  27.4km/h 54% 0in /  0.0mm
19:00 83.8 °F /  28.8 °C 67.5 °F /  19.7 °C 29.9in /  1012.5hPa NE 9mph /  14.5km/h 17mph /  27.4km/h 58% 0in /  0.0mm
19:05 83.7 °F /  28.7 °C 66.4 °F /  19.1 °C 29.9in /  1012.6hPa NE 9mph /  14.5km/h 15mph /  24.1km/h 56% 0in /  0.0mm
19:10 83.5 °F /  28.6 °C 67.6 °F /  19.8 °C 29.9in /  1012.6hPa NE 9.7mph /  15.6km/h 15mph /  24.1km/h 59% 0in /  0.0mm
19:15 83.5 °F /  28.6 °C 67.1 °F /  19.5 °C 29.9in /  1012.6hPa NE 9.7mph /  15.6km/h 15mph /  24.1km/h 58% 0in /  0.0mm
19:20 83.5 °F /  28.6 °C 67.6 °F /  19.8 °C 29.9in /  1012.7hPa ENE 9mph /  14.5km/h 13mph /  20.9km/h 59% 0in /  0.0mm
19:25 83.5 °F /  28.6 °C 67.1 °F /  19.5 °C 29.9in /  1012.7hPa ENE 9mph /  14.5km/h 15mph /  24.1km/h 58% 0in /  0.0mm
19:30 83.1 °F /  28.4 °C 66.7 °F /  19.3 °C 29.9in /  1012.7hPa NE 9mph /  14.5km/h 16mph /  25.7km/h 58% 0in /  0.0mm
19:35 83.1 °F /  28.4 °C 67.8 °F /  19.9 °C 29.9in /  1012.9hPa NE 9mph /  14.5km/h 15mph /  24.1km/h 60% 0in /  0.0mm
19:40 82.8 °F /  28.2 °C 67.5 °F /  19.7 °C 29.9in /  1012.9hPa ESE 9.2mph /  14.8km/h 17.3mph /  27.8km/h 60% 0in /  0.0mm
19:45 82.8 °F /  28.2 °C 67.8 °F /  19.9 °C 29.9in /  1012.9hPa ENE 9mph /  14.5km/h 14mph /  22.5km/h 61% 0in /  0.0mm
19:50 82.6 °F /  28.1 °C 67.8 °F /  19.9 °C 29.9in /  1012.9hPa NE 8.1mph /  13km/h 10.4mph /  16.7km/h 61% 0in /  0.0mm
19:55 82.6 °F /  28.1 °C 67.8 °F /  19.9 °C 29.9in /  1012.9hPa ENE 8mph /  12.9km/h 15mph /  24.1km/h 61% 0in /  0.0mm
20:00 82.4 °F /  28 °C 67.6 °F /  19.8 °C 29.9in /  1012.9hPa ENE 8mph /  12.9km/h 13mph /  20.9km/h 61% 0in /  0.0mm
20:05 82.2 °F /  27.9 °C 67.8 °F /  19.9 °C 29.9in /  1013.1hPa ENE 8mph /  12.9km/h 15mph /  24.1km/h 62% 0in /  0.0mm
20:10 81.9 °F /  27.7 °C 67.6 °F /  19.8 °C 29.9in /  1013.1hPa ENE 8mph /  12.9km/h 14mph /  22.5km/h 62% 0in /  0.0mm
20:15 81.7 °F /  27.6 °C 67.8 °F /  19.9 °C 29.9in /  1013.1hPa NE 8mph /  12.9km/h 12mph /  19.3km/h 63% 0in /  0.0mm
20:20 81.5 °F /  27.5 °C 68.2 °F /  20.1 °C 29.9in /  1013.1hPa ENE 8.5mph /  13.7km/h 12.7mph /  20.4km/h 64% 0in /  0.0mm
20:25 81.7 °F /  27.6 °C 68.4 °F /  20.2 °C 29.9in /  1013.1hPa NE 8mph /  12.9km/h 12mph /  19.3km/h 64% 0in /  0.0mm
20:30 81.7 °F /  27.6 °C 68.4 °F /  20.2 °C 29.9in /  1013.1hPa ENE 7mph /  11.3km/h 10mph /  16.1km/h 64% 0in /  0.0mm
20:35 81.5 °F /  27.5 °C 68.2 °F /  20.1 °C 29.9in /  1013.2hPa ENE 7mph /  11.3km/h 13mph /  20.9km/h 64% 0in /  0.0mm
20:40 81.3 °F /  27.4 °C 68 °F /  20 °C 29.9in /  1013.2hPa NNE 6.9mph /  11.1km/h 13.8mph /  22.2km/h 64% 0in /  0.0mm
20:45 81 °F /  27.2 °C 67.6 °F /  19.8 °C 29.9in /  1013.2hPa NE 6.9mph /  11.1km/h 13.8mph /  22.2km/h 64% 0in /  0.0mm
20:50 81 °F /  27.2 °C 68.5 °F /  20.3 °C 29.9in /  1013.4hPa ENE 8.7mph /  14km/h 10.4mph /  16.7km/h 66% 0in /  0.0mm
20:55 80.8 °F /  27.1 °C 68.4 °F /  20.2 °C 29.9in /  1013.4hPa NE 9mph /  14.5km/h 15mph /  24.1km/h 66% 0in /  0.0mm
21:00 80.6 °F /  27 °C 68.5 °F /  20.3 °C 29.9in /  1013.4hPa NE 8mph /  12.9km/h 14mph /  22.5km/h 67% 0in /  0.0mm
21:05 80.4 °F /  26.9 °C 68.5 °F /  20.3 °C 29.9in /  1013.5hPa NE 8mph /  12.9km/h 12mph /  19.3km/h 67% 0in /  0.0mm
21:10 80.4 °F /  26.9 °C 68.5 °F /  20.3 °C 29.9in /  1013.5hPa Este 6.2mph /  10km/h 5.8mph /  9.3km/h 67% 0in /  0.0mm
21:15 80.4 °F /  26.9 °C 68.9 °F /  20.5 °C 29.9in /  1013.5hPa ENE 6mph /  9.7km/h 9mph /  14.5km/h 68% 0in /  0.0mm
21:20 80.2 °F /  26.8 °C 69.1 °F /  20.6 °C 29.9in /  1013.9hPa ESE 5.2mph /  8.4km/h 8.1mph /  13km/h 69% 0in /  0.0mm
21:25 80.1 °F /  26.7 °C 69.1 °F /  20.6 °C 29.9in /  1013.9hPa ENE 5mph /  8km/h 9mph /  14.5km/h 69% 0in /  0.0mm
21:30 79.9 °F /  26.6 °C 69.3 °F /  20.7 °C 29.9in /  1013.9hPa NNE 4.7mph /  7.6km/h 5.8mph /  9.3km/h 70% 0in /  0.0mm
21:35 79.7 °F /  26.5 °C 69.4 °F /  20.8 °C 29.9in /  1014.1hPa NE 4.7mph /  7.6km/h 6.9mph /  11.1km/h 71% 0in /  0.0mm
21:40 79.5 °F /  26.4 °C 69.3 °F /  20.7 °C 29.9in /  1014.1hPa ESE 4.3mph /  6.9km/h 4.7mph /  7.6km/h 71% 0in /  0.0mm
21:45 79.3 °F /  26.3 °C 69.1 °F /  20.6 °C 29.9in /  1014.1hPa NE 5mph /  8km/h 7mph /  11.3km/h 71% 0in /  0.0mm
21:50 79.2 °F /  26.2 °C 68.9 °F /  20.5 °C 30in /  1014.3hPa NE 3.6mph /  5.8km/h 5.8mph /  9.3km/h 71% 0in /  0.0mm
21:55 79.2 °F /  26.2 °C 68.9 °F /  20.5 °C 30in /  1014.3hPa NE 3mph /  4.8km/h 10mph /  16.1km/h 71% 0in /  0.0mm
22:00 79 °F /  26.1 °C 68.7 °F /  20.4 °C 30in /  1014.3hPa NE 5mph /  8km/h 11mph /  17.7km/h 71% 0in /  0.0mm
22:05 78.6 °F /  25.9 °C 68.7 °F /  20.4 °C 30in /  1014.6hPa ENE 5.2mph /  8.4km/h 11.5mph /  18.5km/h 72% 0in /  0.0mm
22:10 78.4 °F /  25.8 °C 69.1 °F /  20.6 °C 30in /  1014.6hPa ENE 6.9mph /  11.1km/h 10.7mph /  17.2km/h 73% 0in /  0.0mm
22:15 78.4 °F /  25.8 °C 69.1 °F /  20.6 °C 30in /  1014.6hPa Este 6.9mph /  11.1km/h 9.2mph /  14.8km/h 73% 0in /  0.0mm
22:20 78.4 °F /  25.8 °C 69.4 °F /  20.8 °C 30in /  1014.6hPa ENE 6mph /  9.7km/h 9mph /  14.5km/h 74% 0in /  0.0mm
22:25 78.3 °F /  25.7 °C 69.6 °F /  20.9 °C 30in /  1014.6hPa NE 6mph /  9.7km/h 11mph /  17.7km/h 75% 0in /  0.0mm
22:30 78.3 °F /  25.7 °C 69.6 °F /  20.9 °C 30in /  1014.6hPa NE 5.9mph /  9.5km/h 8.1mph /  13km/h 75% 0in /  0.0mm
22:35 78.1 °F /  25.6 °C 70 °F /  21.1 °C 30in /  1014.8hPa NE 6mph /  9.7km/h 9mph /  14.5km/h 76% 0in /  0.0mm
22:40 78.1 °F /  25.6 °C 70 °F /  21.1 °C 30in /  1014.8hPa NE 5.2mph /  8.4km/h 4.6mph /  7.4km/h 76% 0in /  0.0mm
22:45 78.1 °F /  25.6 °C 70 °F /  21.1 °C 30in /  1014.8hPa ENE 5mph /  8km/h 6mph /  9.7km/h 76% 0in /  0.0mm
22:50 78.1 °F /  25.6 °C 70 °F /  21.1 °C 30in /  1015.3hPa NE 3.6mph /  5.8km/h 5.8mph /  9.3km/h 76% 0in /  0.0mm
22:55 78.1 °F /  25.6 °C 70 °F /  21.1 °C 30in /  1015.3hPa NE 3mph /  4.8km/h 7mph /  11.3km/h 76% 0in /  0.0mm
23:00 77.9 °F /  25.5 °C 70.2 °F /  21.2 °C 30in /  1015.3hPa NE 5mph /  8km/h 7mph /  11.3km/h 77% 0in /  0.0mm
23:05 77.9 °F /  25.5 °C 70.2 °F /  21.2 °C 30in /  1015.3hPa NE 5mph /  8km/h 8mph /  12.9km/h 77% 0in /  0.0mm
23:10 77.7 °F /  25.4 °C 70 °F /  21.1 °C 30in /  1015.3hPa NE 5mph /  8km/h 7mph /  11.3km/h 77% 0in /  0.0mm
23:15 77.5 °F /  25.3 °C 70.2 °F /  21.2 °C 30in /  1015.3hPa NE 5mph /  8km/h 7mph /  11.3km/h 78% 0in /  0.0mm
23:20 77.5 °F /  25.3 °C 70.2 °F /  21.2 °C 30in /  1015.4hPa NE 5mph /  8km/h 7mph /  11.3km/h 78% 0in /  0.0mm
23:25 77.4 °F /  25.2 °C 70.3 °F /  21.3 °C 30in /  1015.4hPa ENE 4.7mph /  7.6km/h 5.8mph /  9.3km/h 79% 0in /  0.0mm
23:30 77.4 °F /  25.2 °C 70.3 °F /  21.3 °C 30in /  1015.4hPa NE 4.7mph /  7.6km/h 5.8mph /  9.3km/h 79% 0in /  0.0mm
23:35 77.4 °F /  25.2 °C 70.3 °F /  21.3 °C 30in /  1015.3hPa NE 5mph /  8km/h 6mph /  9.7km/h 79% 0in /  0.0mm
23:40 77.5 °F /  25.3 °C 70.5 °F /  21.4 °C 30in /  1015.3hPa ENE 3.1mph /  5km/h 4.6mph /  7.4km/h 79% 0in /  0.0mm
23:45 77.5 °F /  25.3 °C 70.5 °F /  21.4 °C 30in /  1015.3hPa NE 3mph /  4.8km/h 6mph /  9.7km/h 79% 0in /  0.0mm
23:50 77.5 °F /  25.3 °C 70.5 °F /  21.4 °C 30in /  1015.5hPa NE 3.1mph /  5km/h 5.8mph /  9.3km/h 79% 0in /  0.0mm
23:55 77.5 °F /  25.3 °C 70.5 °F /  21.4 °C 30in /  1015.5hPa NE 3mph /  4.8km/h 6mph /  9.7km/h 79% 0in /  0.0mm
Murcia-Puente Tocinos, España
Compliments of Weather Underground - 3 mb

La estación de MeteoMurcia.com, publica sus datos en los siguientes proyectos:

Weather Underground PWS IMURCIAP2 Meteoclimatic www.awekas.at

W3Counter
Web Analytics